Placentia, California
Current Conditions -  °F | °C
As of 7:53 PM on Tuesday 21 Oct 2014 (Local Time) from KFUL Reporting Station
Clear Clear  
Wind Chill: 71°   Ceiling: Unl
Heat Index: 71°   Visibility: 10mi
Dew Point: 59°   Wind: 0mph
Humidity: 66%   Direction: NA
Pressure: 29.85"   Gusts: NA
Location:  33.87°N, 117.86°W
Report Text: KFUL 220253Z 00000KT 10SM CLR 22/15 A2985 RMK AO2 SLP105 T02170150 53007
Loading
Personal Weather Stations






























Interactive Weather Map
Tropical Storm Tracking
New forecast layout! Learn more

10-Day Weather Forecast

Advertisements
Track Severe Weather on mobile